createdAt,value
2022-08-07T00:03:08.723Z,5.20
2022-08-07T00:08:09.429Z,6.00
2022-08-07T00:13:23.850Z,6.60
2022-08-07T00:18:28.042Z,6.10
2022-08-07T00:23:28.572Z,5.00
2022-08-07T00:28:33.152Z,6.70
2022-08-07T00:33:33.039Z,5.20
2022-08-07T00:38:33.390Z,8.40
2022-08-07T00:43:59.359Z,6.70
2022-08-07T00:48:51.838Z,5.30
2022-08-07T00:53:55.883Z,5.10
2022-08-07T00:58:55.330Z,5.80
2022-08-07T01:03:59.970Z,5.00
2022-08-07T01:09:01.120Z,5.60
2022-08-07T01:14:01.335Z,4.30
2022-08-07T01:19:01.205Z,5.80
2022-08-07T01:24:04.104Z,7.20
2022-08-07T01:29:04.023Z,4.20
2022-08-07T01:34:06.004Z,5.80
2022-08-07T01:39:10.154Z,8.10
2022-08-07T01:44:13.236Z,5.20
2022-08-07T01:49:13.788Z,5.30
2022-08-07T01:54:32.958Z,7.40
2022-08-07T01:59:48.386Z,6.00
2022-08-07T02:04:57.408Z,5.80
2022-08-07T02:10:02.529Z,4.70
2022-08-07T02:15:06.891Z,5.90
2022-08-07T02:20:19.943Z,5.20
2022-08-07T02:26:10.905Z,7.00
2022-08-07T02:30:47.812Z,6.60
2022-08-07T02:36:29.365Z,5.20
2022-08-07T02:41:11.791Z,5.60
2022-08-07T02:46:24.590Z,6.30
2022-08-07T02:51:42.587Z,6.30
2022-08-07T02:56:55.095Z,8.20
2022-08-07T03:01:55.686Z,5.80
2022-08-07T03:06:58.086Z,7.00
2022-08-07T03:12:21.899Z,6.50
2022-08-07T03:17:22.576Z,4.90
2022-08-07T03:22:30.257Z,5.20
2022-08-07T03:28:08.761Z,6.20
2022-08-07T03:32:59.110Z,5.60
2022-08-07T03:38:07.068Z,5.50
2022-08-07T03:43:14.501Z,4.90
2022-08-07T03:48:18.703Z,5.90
2022-08-07T03:53:19.844Z,6.10
2022-08-07T03:59:07.773Z,4.70
2022-08-07T04:04:04.951Z,5.40
2022-08-07T04:09:08.414Z,9.00
2022-08-07T04:14:38.186Z,5.90
2022-08-07T04:19:51.903Z,7.10
2022-08-07T04:24:54.876Z,7.30
2022-08-07T04:30:02.186Z,6.10
2022-08-07T04:35:18.772Z,7.10
2022-08-07T04:40:21.124Z,8.00
2022-08-07T04:45:57.941Z,6.10
2022-08-07T04:50:52.971Z,6.20
2022-08-07T04:58:12.383Z,4.70
2022-08-07T05:01:38.983Z,6.20
2022-08-07T05:06:51.748Z,5.30
2022-08-07T05:11:58.148Z,5.40
2022-08-07T05:17:11.725Z,6.30
2022-08-07T05:22:26.670Z,8.50
2022-08-07T05:28:03.087Z,4.90
2022-08-07T05:32:51.756Z,5.20
2022-08-07T05:38:08.769Z,3.60
2022-08-07T05:43:11.553Z,4.70
2022-08-07T05:48:12.736Z,5.80
2022-08-07T05:54:12.341Z,2.80
2022-08-07T05:58:39.214Z,2.40
2022-08-07T06:03:53.748Z,2.60
2022-08-07T06:08:58.509Z,3.20
2022-08-07T06:14:13.785Z,4.20
2022-08-07T06:19:47.827Z,5.10
2022-08-07T06:24:56.919Z,1.90
2022-08-07T06:29:57.642Z,2.60
2022-08-07T06:34:57.711Z,2.60
2022-08-07T06:40:16.275Z,3.70
2022-08-07T06:45:21.064Z,3.00
2022-08-07T06:50:26.080Z,4.00
2022-08-07T06:55:53.629Z,3.30
2022-08-07T07:00:54.468Z,3.20
2022-08-07T07:06:04.026Z,3.60
2022-08-07T07:11:14.114Z,2.50
2022-08-07T07:16:32.293Z,3.00
2022-08-07T07:22:05.409Z,2.20
2022-08-07T07:27:04.530Z,2.60
2022-08-07T07:32:08.950Z,2.30
2022-08-07T07:37:21.509Z,3.70
2022-08-07T07:42:32.769Z,3.20
2022-08-07T07:47:42.918Z,3.90
2022-08-07T07:52:53.602Z,2.80
2022-08-07T07:57:58.217Z,2.80
2022-08-07T08:03:06.104Z,1.80
2022-08-07T08:08:09.472Z,3.30
2022-08-07T08:13:36.745Z,1.80
2022-08-07T08:18:52.861Z,3.00
2022-08-07T08:24:34.409Z,4.70
2022-08-07T08:29:55.487Z,2.90
2022-08-07T08:34:58.642Z,1.80
2022-08-07T08:39:59.383Z,2.20
2022-08-07T08:45:13.490Z,2.20
2022-08-07T08:50:34.975Z,2.10
2022-08-07T08:55:54.330Z,2.60
2022-08-07T09:01:24.336Z,3.20
2022-08-07T09:06:47.651Z,4.10
2022-08-07T09:12:19.837Z,1.10
2022-08-07T09:17:59.739Z,2.30
2022-08-07T09:24:32.307Z,3.50
2022-08-07T09:29:24.538Z,2.40
2022-08-07T09:34:27.311Z,2.80
2022-08-07T09:39:53.987Z,2.40
2022-08-07T09:47:24.704Z,2.80
2022-08-07T09:50:55.846Z,2.00
2022-08-07T09:56:37.599Z,2.10
2022-08-07T10:02:10.382Z,2.60
2022-08-07T10:07:52.870Z,1.60
2022-08-07T10:13:29.862Z,2.30
2022-08-07T10:19:11.083Z,2.30
2022-08-07T10:24:57.599Z,1.10
2022-08-07T10:30:12.384Z,1.80
2022-08-07T10:35:27.179Z,2.20
2022-08-07T10:40:58.041Z,1.90
2022-08-07T10:46:09.214Z,2.20
2022-08-07T10:51:57.206Z,2.90
2022-08-07T10:56:55.671Z,0.90
2022-08-07T11:02:12.082Z,2.10
2022-08-07T11:07:59.453Z,1.90
2022-08-07T11:13:01.987Z,1.30
2022-08-07T11:18:12.497Z,1.10
2022-08-07T11:23:30.623Z,2.00
2022-08-07T11:28:53.344Z,1.70
2022-08-07T11:34:10.260Z,2.50
2022-08-07T11:39:58.874Z,2.00
2022-08-07T11:45:14.603Z,1.80
2022-08-07T11:50:44.526Z,1.90
2022-08-07T11:56:35.705Z,2.50
2022-08-07T12:02:01.287Z,2.10
2022-08-07T12:07:27.658Z,2.20
2022-08-07T12:12:38.249Z,1.50
2022-08-07T12:17:59.185Z,4.00
2022-08-07T12:23:37.391Z,1.90
2022-08-07T12:28:58.831Z,1.60
2022-08-07T12:34:04.106Z,2.60
2022-08-07T12:39:09.352Z,2.10
2022-08-07T12:44:28.308Z,1.70
2022-08-07T12:49:48.873Z,2.40
2022-08-07T12:55:05.555Z,2.50
2022-08-07T13:00:20.713Z,2.00
2022-08-07T13:06:03.857Z,2.90
2022-08-07T13:12:02.077Z,2.00
2022-08-07T13:17:07.293Z,2.30
2022-08-07T13:22:27.479Z,1.70
2022-08-07T13:28:11.617Z,4.10
2022-08-07T13:33:06.225Z,2.60
2022-08-07T13:38:36.345Z,2.30
2022-08-07T13:43:43.918Z,2.70
2022-08-07T13:48:59.365Z,2.60
2022-08-07T13:54:04.630Z,1.80
2022-08-07T13:59:05.973Z,2.00
2022-08-07T14:04:21.527Z,2.10
2022-08-07T14:10:17.347Z,2.10
2022-08-07T14:14:57.486Z,2.70
2022-08-07T14:20:41.971Z,2.20
2022-08-07T14:25:39.319Z,2.70
2022-08-07T14:30:54.080Z,2.80
2022-08-07T14:36:02.477Z,2.30
2022-08-07T14:41:05.231Z,2.40
2022-08-07T14:46:05.528Z,2.20
2022-08-07T14:51:15.911Z,4.10
2022-08-07T14:56:30.189Z,3.10
2022-08-07T15:01:42.918Z,2.50
2022-08-07T15:06:53.228Z,3.00
2022-08-07T15:12:03.192Z,3.70
2022-08-07T15:17:19.480Z,2.90
2022-08-07T15:22:29.314Z,4.40
2022-08-07T15:27:35.590Z,2.30
2022-08-07T15:32:50.691Z,1.50
2022-08-07T15:38:04.625Z,2.30
2022-08-07T15:43:53.493Z,2.70
2022-08-07T15:49:11.754Z,2.00
2022-08-07T15:54:12.011Z,3.70
2022-08-07T15:59:17.478Z,2.10
2022-08-07T16:04:20.453Z,3.40
2022-08-07T16:09:41.863Z,2.70
2022-08-07T16:15:07.296Z,2.80
2022-08-07T16:20:33.453Z,3.20
2022-08-07T16:25:54.117Z,2.80
2022-08-07T16:31:10.005Z,2.60
2022-08-07T16:37:02.897Z,2.70
2022-08-07T16:42:21.489Z,2.90
2022-08-07T16:48:02.596Z,2.40
2022-08-07T16:54:01.942Z,2.30
2022-08-07T16:59:10.565Z,3.00
2022-08-07T17:04:31.144Z,4.10
2022-08-07T17:10:07.049Z,2.70
2022-08-07T17:15:20.654Z,2.90
2022-08-07T17:20:33.187Z,3.40
2022-08-07T17:25:51.106Z,2.80
2022-08-07T17:31:15.985Z,2.40
2022-08-07T17:36:26.095Z,2.60
2022-08-07T17:42:02.165Z,2.60
2022-08-07T17:47:09.289Z,2.70
2022-08-07T17:52:35.660Z,2.60
2022-08-07T17:58:02.505Z,4.70
2022-08-07T18:03:19.518Z,2.10
2022-08-07T18:08:27.050Z,4.00
2022-08-07T18:13:48.611Z,3.20
2022-08-07T18:21:03.066Z,4.50
2022-08-07T18:24:34.392Z,2.10
2022-08-07T18:30:06.226Z,5.00
2022-08-07T18:35:27.477Z,2.40
2022-08-07T18:40:49.266Z,2.60
2022-08-07T18:46:25.261Z,3.60
2022-08-07T18:52:33.922Z,4.20
2022-08-07T18:57:29.445Z,3.30
2022-08-07T19:02:42.516Z,2.90
2022-08-07T19:08:05.686Z,3.00
2022-08-07T19:13:12.004Z,3.00
2022-08-07T19:18:34.402Z,3.60
2022-08-07T19:23:58.110Z,4.10
2022-08-07T19:31:05.680Z,3.50
2022-08-07T19:34:33.725Z,3.00
2022-08-07T19:39:56.573Z,3.60
2022-08-07T19:45:00.682Z,3.60
2022-08-07T19:50:44.142Z,3.90
2022-08-07T19:55:57.536Z,3.80
2022-08-07T20:00:57.472Z,4.30
2022-08-07T20:06:04.439Z,4.50
2022-08-07T20:11:09.860Z,6.30
2022-08-07T20:16:32.287Z,7.80
2022-08-07T20:21:41.953Z,8.00
2022-08-07T20:26:54.799Z,9.70
2022-08-07T20:31:58.572Z,9.60
2022-08-07T20:37:02.170Z,9.10
2022-08-07T20:42:03.439Z,8.70
2022-08-07T20:47:09.404Z,8.70
2022-08-07T20:52:17.204Z,7.80
2022-08-07T20:57:22.950Z,7.20
2022-08-07T21:02:54.109Z,6.60
2022-08-07T21:07:58.041Z,5.80
2022-08-07T21:13:04.633Z,6.50
2022-08-07T21:18:25.396Z,5.90
2022-08-07T21:23:50.378Z,9.50
2022-08-07T21:28:56.612Z,5.60
2022-08-07T21:34:13.073Z,7.90
2022-08-07T21:39:45.190Z,8.10
2022-08-07T21:44:55.554Z,5.90
2022-08-07T21:50:04.784Z,6.80
2022-08-07T21:55:29.962Z,9.10
2022-08-07T22:00:31.027Z,6.00
2022-08-07T22:05:45.822Z,7.10
2022-08-07T22:10:53.910Z,6.00
2022-08-07T22:16:43.138Z,6.50
2022-08-07T22:22:04.694Z,6.60
2022-08-07T22:27:10.392Z,6.10
2022-08-07T22:32:21.283Z,5.60
2022-08-07T22:38:02.975Z,7.60
2022-08-07T22:43:00.151Z,8.10
2022-08-07T22:48:54.886Z,7.00
2022-08-07T22:54:06.429Z,8.50
2022-08-07T22:59:52.878Z,18.20
2022-08-07T23:06:09.291Z,23.20
2022-08-07T23:11:19.391Z,19.80
2022-08-07T23:16:44.471Z,19.40
2022-08-07T23:21:57.968Z,12.90
2022-08-07T23:27:35.759Z,11.80
2022-08-07T23:34:21.551Z,7.80
2022-08-07T23:39:14.798Z,9.40
2022-08-07T23:44:43.333Z,6.50
2022-08-07T23:50:30.267Z,9.80
2022-08-07T23:55:53.419Z,6.60
